Airfield :
LOGIN :

Register | Disclaimer

   EN    FR    IT 

 










Legend :    VFR   Marginal VFR   IFR   Intensive IFR   Very Intensive IFR
Visi :
Ceiling :
>= 8 km
>= 3000ft
5 to 8 km
1000 to 3000 ft
1500m to 5 km
500 to 1000 ft
800 to 1500m
200 to 500 ft
< 800m
< 200 ft
Symbols :   Thunderstorms  Fog  Heavy snow  Heavy precipitations  Wind > 20 kt
SIGMETs :     Misc.  Thunderstorms  Icing  Turbulence  Mountain Waves  Volcanic Ashes






- Airport Elevation : 141 ft
- IATA code : SKS


EKSP - Srydstrup Vojens

CURRENT METAR :
  • 170120Z 18006KT 9999 FEW012 10/10 Q1008

EXPIRED METARs :
  • 170050Z 17005KT 9999 FEW012 10/10 Q1008
  • 170020Z 17005KT 9999 FEW012 10/10 Q1008
  • 162350Z 16005KT 9999 FEW018 10/10 Q1008
  • 162320Z 16005KT 9999 FEW018 10/10 Q1008
  • 162250Z 17005KT 9999 FEW018 11/10 Q1007
  • 162220Z 17005KT 9999 BKN018 12/11 Q1007
  • 162150Z 18004KT 9999 BKN012 SCT048 12/11 Q1007
  • 162120Z 16003KT 9999 FEW012 SCT048 11/11 Q1007
  • 162050Z 15004KT 9999 SCT012 FEW018CB SCT048 11/10 Q1007

TAF TAF EKSP
Valid from the 17 at 00:00 until the 18 at 00:00 UTC


162301Z 1700/1724 17008KT 9999 SCT020
TEMPO 1701/1705 1200 BCFG
TEMPO 1709/1716 4000 SHRA SCT020CB
BECMG 1713/1716 24012KT



MET'MAP, your aeronautical weather chart ! - Copyright ORBIFLY December 2007 - Disclaimer

ORBIFLY MET'MAP TEAM :

Programming & Development : Alexandra Zaïnal
Original concept : Baudouin d'Aumeries
Technical & hardware support : Manuel Goepfert
Assistance : Marc-Olivier Méhu




SOURCES & CREDITS :

   NOAA